createdAt,value
2022-08-05T00:01:28.544Z,80.08
2022-08-05T00:06:33.503Z,79.31
2022-08-05T00:11:49.296Z,80.12
2022-08-05T00:17:01.645Z,81.03
2022-08-05T00:22:05.811Z,80.36
2022-08-05T00:27:10.399Z,80.17
2022-08-05T00:32:18.906Z,80.22
2022-08-05T00:37:22.442Z,79.98
2022-08-05T00:42:32.518Z,79.92
2022-08-05T00:47:53.350Z,79.96
2022-08-05T00:53:01.144Z,79.45
2022-08-05T00:58:05.159Z,80.35
2022-08-05T01:03:10.560Z,80.16
2022-08-05T01:08:40.697Z,81.54
2022-08-05T01:13:57.454Z,81.98
2022-08-05T01:19:14.326Z,83.14
2022-08-05T01:24:37.240Z,83.12
2022-08-05T01:29:48.160Z,82.88
2022-08-05T01:34:56.127Z,83.14
2022-08-05T01:40:02.151Z,83.90
2022-08-05T01:45:09.163Z,84.04
2022-08-05T01:50:28.785Z,84.76
2022-08-05T01:55:36.451Z,86.28
2022-08-05T02:00:45.380Z,86.06
2022-08-05T02:05:53.475Z,86.34
2022-08-05T02:11:06.351Z,86.08
2022-08-05T02:16:18.266Z,86.25
2022-08-05T02:21:30.371Z,86.70
2022-08-05T02:26:39.762Z,86.53
2022-08-05T02:31:59.176Z,87.75
2022-08-05T02:37:11.072Z,89.61
2022-08-05T02:42:25.694Z,89.37
2022-08-05T02:47:58.499Z,89.12
2022-08-05T02:52:58.676Z,89.14
2022-08-05T02:58:11.604Z,90.57
2022-08-05T03:03:20.134Z,90.96
2022-08-05T03:08:29.836Z,91.41
2022-08-05T03:13:50.998Z,91.59
2022-08-05T03:18:58.225Z,91.35
2022-08-05T03:24:02.417Z,92.12
2022-08-05T03:29:06.265Z,92.55
2022-08-05T03:34:17.515Z,92.22
2022-08-05T03:39:27.181Z,91.94
2022-08-05T03:44:31.465Z,91.87
2022-08-05T03:49:51.636Z,93.01
2022-08-05T03:56:03.793Z,92.73
2022-08-05T04:00:30.006Z,93.17
2022-08-05T04:05:37.263Z,92.05
2022-08-05T04:10:45.426Z,92.24
2022-08-05T04:15:52.784Z,91.62
2022-08-05T04:21:10.879Z,90.96
2022-08-05T04:26:15.800Z,90.88
2022-08-05T04:31:21.086Z,91.10
2022-08-05T04:36:45.930Z,91.05
2022-08-05T04:41:50.968Z,91.31
2022-08-05T04:46:54.670Z,91.47
2022-08-05T04:52:00.381Z,91.09
2022-08-05T04:57:04.150Z,90.50
2022-08-05T05:02:36.766Z,89.76
2022-08-05T05:07:35.589Z,88.58
2022-08-05T05:12:39.272Z,87.87
2022-08-05T05:17:56.485Z,87.27
2022-08-05T05:23:08.169Z,85.54
2022-08-05T05:28:12.812Z,85.34
2022-08-05T05:33:17.430Z,84.47
2022-08-05T05:38:27.589Z,83.38
2022-08-05T05:43:58.311Z,83.54
2022-08-05T05:48:54.507Z,81.65
2022-08-05T05:54:00.091Z,80.04
2022-08-05T05:59:05.345Z,78.74
2022-08-05T06:04:12.203Z,75.48
2022-08-05T06:09:25.703Z,62.75
2022-08-05T06:14:40.262Z,48.11
2022-08-05T06:19:43.776Z,47.15
2022-08-05T06:25:01.441Z,42.58
2022-08-05T06:30:27.409Z,38.27
2022-08-05T06:36:07.270Z,34.46
2022-08-05T06:40:56.306Z,31.91
2022-08-05T06:46:07.309Z,31.02
2022-08-05T06:51:22.706Z,29.31
2022-08-05T06:56:29.452Z,27.89
2022-08-05T07:01:33.364Z,27.20
2022-08-05T07:06:37.414Z,26.75
2022-08-05T07:11:43.773Z,25.54
2022-08-05T07:17:59.331Z,26.00
2022-08-05T07:22:28.185Z,25.55
2022-08-05T07:27:57.970Z,24.05
2022-08-05T07:32:57.689Z,25.45
2022-08-05T07:38:01.019Z,27.09
2022-08-05T07:43:20.277Z,26.33
2022-08-05T07:49:00.829Z,24.24
2022-08-05T07:53:50.225Z,24.03
2022-08-05T07:58:58.775Z,23.80
2022-08-05T08:04:03.173Z,24.72
2022-08-05T08:09:07.612Z,23.33
2022-08-05T08:14:12.424Z,22.97
2022-08-05T08:20:23.382Z,22.28
2022-08-05T08:24:51.420Z,23.13
2022-08-05T08:30:05.713Z,21.91
2022-08-05T08:35:21.042Z,22.85
2022-08-05T08:40:33.472Z,22.71
2022-08-05T08:45:39.222Z,22.63
2022-08-05T08:51:23.189Z,23.87
2022-08-05T08:56:09.119Z,22.36
2022-08-05T09:01:16.206Z,23.88
2022-08-05T09:06:21.357Z,24.49
2022-08-05T09:11:50.806Z,26.12
2022-08-05T09:16:58.688Z,26.67
2022-08-05T09:22:22.972Z,26.57
2022-08-05T09:28:04.633Z,28.45
2022-08-05T09:33:02.727Z,30.07
2022-08-05T09:38:16.773Z,30.88
2022-08-05T09:43:28.132Z,30.67
2022-08-05T09:48:55.294Z,31.58
2022-08-05T09:54:11.543Z,30.82
2022-08-05T09:59:18.192Z,31.20
2022-08-05T10:04:38.342Z,30.90
2022-08-05T10:10:14.238Z,29.86
2022-08-05T10:15:23.816Z,29.04
2022-08-05T10:20:31.263Z,28.36
2022-08-05T10:25:36.924Z,28.80
2022-08-05T10:31:20.969Z,26.47
2022-08-05T10:36:07.065Z,26.28
2022-08-05T10:41:23.239Z,26.12
2022-08-05T10:46:44.964Z,27.50
2022-08-05T10:51:59.910Z,26.49
2022-08-05T10:57:03.958Z,27.23
2022-08-05T11:02:14.503Z,26.18
2022-08-05T11:08:02.564Z,26.48
2022-08-05T11:13:01.155Z,25.92
2022-08-05T11:18:11.659Z,26.55
2022-08-05T11:24:02.547Z,25.53
2022-08-05T11:29:06.829Z,25.57
2022-08-05T11:34:22.511Z,23.11
2022-08-05T11:39:55.391Z,22.67
2022-08-05T11:45:23.247Z,24.70
2022-08-05T11:50:30.494Z,25.21
2022-08-05T11:55:36.223Z,24.47
2022-08-05T12:00:41.603Z,24.90
2022-08-05T12:05:47.925Z,25.38
2022-08-05T12:10:53.967Z,25.83
2022-08-05T12:15:58.932Z,26.18
2022-08-05T12:21:12.844Z,26.79
2022-08-05T12:26:19.942Z,25.28
2022-08-05T12:31:33.604Z,25.09
2022-08-05T12:36:48.337Z,24.43
2022-08-05T12:41:59.131Z,24.99
2022-08-05T12:47:02.804Z,25.18
2022-08-05T12:52:23.873Z,24.27
2022-08-05T12:58:38.785Z,23.30
2022-08-05T13:03:03.145Z,22.94
2022-08-05T13:08:10.183Z,23.22
2022-08-05T13:14:06.515Z,20.19
2022-08-05T13:18:52.281Z,18.57
2022-08-05T13:23:58.765Z,19.15
2022-08-05T13:29:05.185Z,18.53
2022-08-05T13:34:22.647Z,18.58
2022-08-05T13:40:16.358Z,18.09
2022-08-05T13:44:54.537Z,16.75
2022-08-05T13:49:59.269Z,16.74
2022-08-05T13:55:02.575Z,17.92
2022-08-05T14:00:14.072Z,18.25
2022-08-05T14:05:29.192Z,17.60
2022-08-05T14:10:34.863Z,16.07
2022-08-05T14:16:06.276Z,15.57
2022-08-05T14:22:07.803Z,16.17
2022-08-05T14:26:37.026Z,16.43
2022-08-05T14:32:03.703Z,15.41
2022-08-05T14:37:09.484Z,16.62
2022-08-05T14:42:21.001Z,18.01
2022-08-05T14:47:58.455Z,17.81
2022-08-05T14:52:53.441Z,18.97
2022-08-05T14:58:01.258Z,18.13
2022-08-05T15:03:16.132Z,18.82
2022-08-05T15:08:57.749Z,19.05
2022-08-05T15:13:46.533Z,20.63
2022-08-05T15:18:55.089Z,21.17
2022-08-05T15:23:58.498Z,20.11
2022-08-05T15:29:02.469Z,19.99
2022-08-05T15:34:32.514Z,21.29
2022-08-05T15:40:58.762Z,20.53
2022-08-05T15:44:55.076Z,21.46
2022-08-05T15:49:59.825Z,21.03
2022-08-05T15:55:03.789Z,23.66
2022-08-05T16:00:09.618Z,24.77
2022-08-05T16:05:16.139Z,26.04
2022-08-05T16:10:23.320Z,26.27
2022-08-05T16:15:32.775Z,26.85
2022-08-05T16:20:38.806Z,26.60
2022-08-05T16:25:42.492Z,27.20
2022-08-05T16:30:48.370Z,27.72
2022-08-05T16:35:55.551Z,28.23
2022-08-05T16:41:02.405Z,28.30
2022-08-05T16:46:25.657Z,28.54
2022-08-05T16:51:42.811Z,28.83
2022-08-05T16:56:53.829Z,29.08
2022-08-05T17:01:57.871Z,29.37
2022-08-05T17:07:11.272Z,30.35
2022-08-05T17:12:15.091Z,29.92
2022-08-05T17:17:19.708Z,31.51
2022-08-05T17:22:27.933Z,31.05
2022-08-05T17:27:33.882Z,31.05
2022-08-05T17:32:37.991Z,30.63
2022-08-05T17:37:48.469Z,31.28
2022-08-05T17:42:53.518Z,33.00
2022-08-05T17:47:57.131Z,32.73
2022-08-05T17:53:04.649Z,34.42
2022-08-05T17:58:12.665Z,37.46
2022-08-05T18:03:58.376Z,38.57
2022-08-05T18:08:46.228Z,39.76
2022-08-05T18:13:56.069Z,39.85
2022-08-05T18:18:59.474Z,40.81
2022-08-05T18:24:04.464Z,41.20
2022-08-05T18:29:10.224Z,42.59
2022-08-05T18:34:13.813Z,43.68
2022-08-05T18:39:41.737Z,43.90
2022-08-05T18:44:49.294Z,44.59
2022-08-05T18:50:16.278Z,45.25
2022-08-05T18:55:22.221Z,46.71
2022-08-05T19:00:28.892Z,46.59
2022-08-05T19:06:11.889Z,46.78
2022-08-05T19:11:04.742Z,47.34
2022-08-05T19:16:25.466Z,48.11
2022-08-05T19:21:34.661Z,48.65
2022-08-05T19:26:54.314Z,49.30
2022-08-05T19:31:58.978Z,51.56
2022-08-05T19:37:02.333Z,51.46
2022-08-05T19:42:09.303Z,52.60
2022-08-05T19:47:16.823Z,53.30
2022-08-05T19:52:30.621Z,54.51
2022-08-05T19:57:49.319Z,56.97
2022-08-05T20:02:59.917Z,57.46
2022-08-05T20:08:03.235Z,57.12
2022-08-05T20:13:09.273Z,58.10
2022-08-05T20:18:32.905Z,57.92
2022-08-05T20:23:51.181Z,58.15
2022-08-05T20:29:00.646Z,58.57
2022-08-05T20:34:04.389Z,60.31
2022-08-05T20:39:07.732Z,58.85
2022-08-05T20:44:29.612Z,60.07
2022-08-05T20:49:39.605Z,60.86
2022-08-05T20:55:54.294Z,61.40
2022-08-05T21:00:40.637Z,61.57
2022-08-05T21:05:47.900Z,62.16
2022-08-05T21:10:58.356Z,62.73
2022-08-05T21:16:03.571Z,64.20
2022-08-05T21:21:07.538Z,64.36
2022-08-05T21:26:15.244Z,65.97
2022-08-05T21:31:20.474Z,66.41
2022-08-05T21:36:30.062Z,67.58
2022-08-05T21:41:36.491Z,68.41
2022-08-05T21:46:41.781Z,69.54
2022-08-05T21:52:16.658Z,70.40
2022-08-05T21:57:30.743Z,72.09
2022-08-05T22:02:34.935Z,72.44
2022-08-05T22:07:40.420Z,73.05
2022-08-05T22:14:06.459Z,74.69
2022-08-05T22:18:27.136Z,74.45
2022-08-05T22:24:02.229Z,75.66
2022-08-05T22:29:07.842Z,76.45
2022-08-05T22:34:25.480Z,76.78
2022-08-05T22:39:33.863Z,77.39
2022-08-05T22:44:37.476Z,76.36
2022-08-05T22:50:21.509Z,76.90
2022-08-05T22:55:18.916Z,77.15
2022-08-05T23:00:24.817Z,77.26
2022-08-05T23:05:31.308Z,77.28
2022-08-05T23:10:39.389Z,77.46
2022-08-05T23:15:42.709Z,78.24
2022-08-05T23:20:47.638Z,78.39
2022-08-05T23:25:55.445Z,77.93
2022-08-05T23:31:15.853Z,79.85
2022-08-05T23:36:28.245Z,79.83
2022-08-05T23:41:34.257Z,80.25
2022-08-05T23:46:40.765Z,80.54
2022-08-05T23:52:05.519Z,80.76
2022-08-05T23:57:10.400Z,79.86
